sensor_id;sensor_type;location;lat;lon;timestamp;noise_LAeq;noise_LA_min;noise_LA_max;noise_LA01;noise_LA95
43168;Laerm;28773;48.804;9.024;2023-03-23T00:01:28;30.86;29.58;33.07;;
43168;Laerm;28773;48.804;9.024;2023-03-23T00:03:56;30.99;29.69;34.76;;
43168;Laerm;28773;48.804;9.024;2023-03-23T00:06:22;31.04;29.62;36.17;;
43168;Laerm;28773;48.804;9.024;2023-03-23T00:08:48;30.94;29.33;34.82;;
43168;Laerm;28773;48.804;9.024;2023-03-23T00:11:16;31.00;29.68;35.75;;
43168;Laerm;28773;48.804;9.024;2023-03-23T00:13:43;30.87;29.62;32.00;;
43168;Laerm;28773;48.804;9.024;2023-03-23T00:16:10;30.89;29.75;32.77;;
43168;Laerm;28773;48.804;9.024;2023-03-23T00:21:09;30.90;29.64;32.84;;
43168;Laerm;28773;48.804;9.024;2023-03-23T00:23:34;31.05;29.41;38.99;;
43168;Laerm;28773;48.804;9.024;2023-03-23T00:25:59;31.05;29.74;36.19;;
43168;Laerm;28773;48.804;9.024;2023-03-23T00:28:25;30.88;29.72;32.37;;
43168;Laerm;28773;48.804;9.024;2023-03-23T00:30:55;31.02;29.41;35.99;;
43168;Laerm;28773;48.804;9.024;2023-03-23T00:33:21;30.91;29.67;34.78;;
43168;Laerm;28773;48.804;9.024;2023-03-23T00:35:47;31.04;29.56;36.82;;
43168;Laerm;28773;48.804;9.024;2023-03-23T00:38:13;30.90;29.55;32.49;;
43168;Laerm;28773;48.804;9.024;2023-03-23T00:40:38;30.92;29.59;34.45;;
43168;Laerm;28773;48.804;9.024;2023-03-23T00:43:04;30.90;29.61;32.19;;
43168;Laerm;28773;48.804;9.024;2023-03-23T00:45:29;30.89;29.60;32.09;;
43168;Laerm;28773;48.804;9.024;2023-03-23T00:47:54;30.88;29.57;32.19;;
43168;Laerm;28773;48.804;9.024;2023-03-23T00:50:19;31.07;29.64;37.13;;
43168;Laerm;28773;48.804;9.024;2023-03-23T00:52:44;31.04;29.66;36.39;;
43168;Laerm;28773;48.804;9.024;2023-03-23T00:55:10;30.89;29.37;32.19;;
43168;Laerm;28773;48.804;9.024;2023-03-23T00:57:35;30.88;29.62;32.32;;
43168;Laerm;28773;48.804;9.024;2023-03-23T01:00:00;30.90;29.45;33.02;;
43168;Laerm;28773;48.804;9.024;2023-03-23T01:02:25;30.91;29.57;33.02;;
43168;Laerm;28773;48.804;9.024;2023-03-23T01:04:51;30.88;29.65;32.18;;
43168;Laerm;28773;48.804;9.024;2023-03-23T01:07:17;30.97;29.59;34.50;;
43168;Laerm;28773;48.804;9.024;2023-03-23T01:09:43;30.98;29.48;34.72;;
43168;Laerm;28773;48.804;9.024;2023-03-23T01:12:09;30.95;29.51;35.05;;
43168;Laerm;28773;48.804;9.024;2023-03-23T01:14:34;30.90;29.44;33.13;;
43168;Laerm;28773;48.804;9.024;2023-03-23T01:17:00;30.86;29.55;32.36;;
43168;Laerm;28773;48.804;9.024;2023-03-23T01:19:25;30.91;29.62;37.53;;
43168;Laerm;28773;48.804;9.024;2023-03-23T01:21:50;30.89;29.42;34.01;;
43168;Laerm;28773;48.804;9.024;2023-03-23T01:24:15;30.86;29.61;33.13;;
43168;Laerm;28773;48.804;9.024;2023-03-23T01:26:40;30.91;29.63;35.59;;
43168;Laerm;28773;48.804;9.024;2023-03-23T01:29:06;31.13;29.61;36.78;;
43168;Laerm;28773;48.804;9.024;2023-03-23T01:31:31;30.86;29.49;32.97;;
43168;Laerm;28773;48.804;9.024;2023-03-23T01:33:56;30.85;29.53;32.35;;
43168;Laerm;28773;48.804;9.024;2023-03-23T01:36:23;30.85;29.69;33.33;;
43168;Laerm;28773;48.804;9.024;2023-03-23T01:38:49;30.87;29.39;34.34;;
43168;Laerm;28773;48.804;9.024;2023-03-23T01:41:15;30.86;29.63;32.21;;
43168;Laerm;28773;48.804;9.024;2023-03-23T01:46:30;30.89;29.53;33.47;;
43168;Laerm;28773;48.804;9.024;2023-03-23T01:48:56;30.87;29.63;32.62;;
43168;Laerm;28773;48.804;9.024;2023-03-23T01:51:22;30.87;29.54;31.99;;
43168;Laerm;28773;48.804;9.024;2023-03-23T01:53:53;30.92;29.69;33.82;;
43168;Laerm;28773;48.804;9.024;2023-03-23T01:56:21;30.84;29.68;32.12;;
43168;Laerm;28773;48.804;9.024;2023-03-23T01:58:49;30.85;29.46;32.22;;
43168;Laerm;28773;48.804;9.024;2023-03-23T02:01:15;30.84;29.64;32.03;;
43168;Laerm;28773;48.804;9.024;2023-03-23T02:03:41;30.85;29.57;32.13;;
43168;Laerm;28773;48.804;9.024;2023-03-23T02:06:08;30.90;29.30;35.49;;
43168;Laerm;28773;48.804;9.024;2023-03-23T02:08:34;31.21;29.45;39.81;;
43168;Laerm;28773;48.804;9.024;2023-03-23T02:11:00;30.86;29.41;32.73;;
43168;Laerm;28773;48.804;9.024;2023-03-23T02:13:25;30.94;29.38;33.13;;
43168;Laerm;28773;48.804;9.024;2023-03-23T02:15:54;32.16;29.68;45.72;;
43168;Laerm;28773;48.804;9.024;2023-03-23T02:18:26;30.85;29.60;32.21;;
43168;Laerm;28773;48.804;9.024;2023-03-23T02:21:15;31.26;29.68;39.45;;
43168;Laerm;28773;48.804;9.024;2023-03-23T02:24:01;30.87;29.68;32.38;;
43168;Laerm;28773;48.804;9.024;2023-03-23T02:26:38;30.88;29.44;32.08;;
43168;Laerm;28773;48.804;9.024;2023-03-23T02:34:33;30.90;29.45;32.69;;
43168;Laerm;28773;48.804;9.024;2023-03-23T02:37:03;30.90;29.63;32.16;;
43168;Laerm;28773;48.804;9.024;2023-03-23T02:39:30;30.90;29.46;32.23;;
43168;Laerm;28773;48.804;9.024;2023-03-23T02:42:02;30.90;29.62;32.46;;
43168;Laerm;28773;48.804;9.024;2023-03-23T02:44:29;31.17;29.79;39.92;;
43168;Laerm;28773;48.804;9.024;2023-03-23T02:46:56;31.50;29.71;39.39;;
43168;Laerm;28773;48.804;9.024;2023-03-23T02:49:21;30.91;29.73;32.01;;
43168;Laerm;28773;48.804;9.024;2023-03-23T02:51:49;30.93;29.59;32.22;;
43168;Laerm;28773;48.804;9.024;2023-03-23T02:54:15;30.98;29.19;33.84;;
43168;Laerm;28773;48.804;9.024;2023-03-23T02:56:42;30.93;29.45;32.78;;
43168;Laerm;28773;48.804;9.024;2023-03-23T02:59:08;31.07;29.51;36.95;;
43168;Laerm;28773;48.804;9.024;2023-03-23T03:04:00;30.90;29.50;32.02;;
43168;Laerm;28773;48.804;9.024;2023-03-23T03:09:20;30.91;29.50;32.28;;
43168;Laerm;28773;48.804;9.024;2023-03-23T03:11:45;30.91;29.66;32.19;;
43168;Laerm;28773;48.804;9.024;2023-03-23T03:14:22;30.96;29.64;33.27;;
43168;Laerm;28773;48.804;9.024;2023-03-23T03:17:00;30.93;29.54;32.11;;
43168;Laerm;28773;48.804;9.024;2023-03-23T03:19:35;30.96;29.63;32.25;;
43168;Laerm;28773;48.804;9.024;2023-03-23T03:22:02;30.97;29.63;32.14;;
43168;Laerm;28773;48.804;9.024;2023-03-23T03:24:29;31.21;29.41;38.68;;
43168;Laerm;28773;48.804;9.024;2023-03-23T03:26:56;30.97;29.50;32.13;;
43168;Laerm;28773;48.804;9.024;2023-03-23T03:29:29;30.98;29.73;32.20;;
43168;Laerm;28773;48.804;9.024;2023-03-23T03:31:56;30.98;29.60;32.26;;
43168;Laerm;28773;48.804;9.024;2023-03-23T03:34:23;31.10;29.60;36.20;;
43168;Laerm;28773;48.804;9.024;2023-03-23T03:36:49;30.98;29.65;32.76;;
43168;Laerm;28773;48.804;9.024;2023-03-23T03:39:16;31.06;29.66;35.13;;
43168;Laerm;28773;48.804;9.024;2023-03-23T03:41:42;31.41;29.48;35.97;;
43168;Laerm;28773;48.804;9.024;2023-03-23T03:44:07;31.28;29.81;38.46;;
43168;Laerm;28773;48.804;9.024;2023-03-23T03:46:33;31.05;29.44;36.68;;
43168;Laerm;28773;48.804;9.024;2023-03-23T03:48:59;31.21;29.62;39.05;;
43168;Laerm;28773;48.804;9.024;2023-03-23T03:51:25;31.09;29.61;37.17;;
43168;Laerm;28773;48.804;9.024;2023-03-23T03:53:51;31.22;29.79;35.78;;
43168;Laerm;28773;48.804;9.024;2023-03-23T03:56:16;31.44;29.74;39.80;;
43168;Laerm;28773;48.804;9.024;2023-03-23T03:58:42;30.97;29.61;32.71;;
43168;Laerm;28773;48.804;9.024;2023-03-23T04:01:08;31.42;29.73;38.78;;
43168;Laerm;28773;48.804;9.024;2023-03-23T04:03:35;31.41;29.47;37.08;;
43168;Laerm;28773;48.804;9.024;2023-03-23T04:06:00;31.20;29.88;38.76;;
43168;Laerm;28773;48.804;9.024;2023-03-23T04:08:25;31.44;29.75;39.36;;
43168;Laerm;28773;48.804;9.024;2023-03-23T04:10:51;31.00;29.62;34.68;;
43168;Laerm;28773;48.804;9.024;2023-03-23T04:13:17;31.21;29.75;38.60;;
43168;Laerm;28773;48.804;9.024;2023-03-23T04:15:43;31.10;29.55;37.78;;
43168;Laerm;28773;48.804;9.024;2023-03-23T04:18:08;31.62;29.65;40.21;;
43168;Laerm;28773;48.804;9.024;2023-03-23T04:20:34;31.04;29.31;34.95;;
43168;Laerm;28773;48.804;9.024;2023-03-23T04:22:59;31.92;29.56;42.46;;
43168;Laerm;28773;48.804;9.024;2023-03-23T04:25:25;31.63;29.72;41.02;;
43168;Laerm;28773;48.804;9.024;2023-03-23T04:27:50;31.63;29.66;38.04;;
43168;Laerm;28773;48.804;9.024;2023-03-23T04:30:19;31.60;29.57;38.54;;
43168;Laerm;28773;48.804;9.024;2023-03-23T04:32:46;31.57;29.68;38.01;;
43168;Laerm;28773;48.804;9.024;2023-03-23T04:35:15;31.32;29.62;41.31;;
43168;Laerm;28773;48.804;9.024;2023-03-23T04:37:41;31.77;29.70;39.50;;
43168;Laerm;28773;48.804;9.024;2023-03-23T04:40:07;31.54;29.51;39.73;;
43168;Laerm;28773;48.804;9.024;2023-03-23T04:42:35;31.62;29.68;38.16;;
43168;Laerm;28773;48.804;9.024;2023-03-23T04:45:02;31.89;29.63;39.47;;
43168;Laerm;28773;48.804;9.024;2023-03-23T04:47:28;31.89;29.69;39.56;;
43168;Laerm;28773;48.804;9.024;2023-03-23T04:49:54;31.64;29.58;40.30;;
43168;Laerm;28773;48.804;9.024;2023-03-23T04:52:19;32.46;29.70;39.25;;
43168;Laerm;28773;48.804;9.024;2023-03-23T04:54:45;31.11;29.12;38.15;;
43168;Laerm;28773;48.804;9.024;2023-03-23T04:57:10;31.65;29.72;39.04;;
43168;Laerm;28773;48.804;9.024;2023-03-23T04:59:37;32.54;29.58;39.21;;
43168;Laerm;28773;48.804;9.024;2023-03-23T05:02:02;32.48;29.43;41.49;;
43168;Laerm;28773;48.804;9.024;2023-03-23T05:04:28;31.77;29.46;39.88;;
43168;Laerm;28773;48.804;9.024;2023-03-23T05:06:53;31.65;29.69;39.23;;
43168;Laerm;28773;48.804;9.024;2023-03-23T05:09:18;32.43;29.52;40.69;;
43168;Laerm;28773;48.804;9.024;2023-03-23T05:11:44;32.10;29.59;39.75;;
43168;Laerm;28773;48.804;9.024;2023-03-23T05:14:09;31.69;29.55;39.32;;
43168;Laerm;28773;48.804;9.024;2023-03-23T05:16:35;32.31;29.76;39.33;;
43168;Laerm;28773;48.804;9.024;2023-03-23T05:19:01;31.56;29.52;38.65;;
43168;Laerm;28773;48.804;9.024;2023-03-23T05:21:26;32.76;29.41;40.25;;
43168;Laerm;28773;48.804;9.024;2023-03-23T05:23:53;32.42;29.78;41.11;;
43168;Laerm;28773;48.804;9.024;2023-03-23T05:26:20;33.39;29.77;42.84;;
43168;Laerm;28773;48.804;9.024;2023-03-23T05:28:45;32.24;29.77;39.28;;
43168;Laerm;28773;48.804;9.024;2023-03-23T05:31:10;32.75;29.76;38.78;;
43168;Laerm;28773;48.804;9.024;2023-03-23T05:33:36;32.58;29.47;40.27;;
43168;Laerm;28773;48.804;9.024;2023-03-23T05:36:01;33.19;29.83;43.06;;
43168;Laerm;28773;48.804;9.024;2023-03-23T05:38:29;32.96;29.81;40.18;;
43168;Laerm;28773;48.804;9.024;2023-03-23T05:40:57;32.53;29.73;39.11;;
43168;Laerm;28773;48.804;9.024;2023-03-23T05:43:24;32.63;29.76;38.98;;
43168;Laerm;28773;48.804;9.024;2023-03-23T05:45:50;33.83;29.54;39.67;;
43168;Laerm;28773;48.804;9.024;2023-03-23T05:48:15;32.78;29.78;39.54;;
43168;Laerm;28773;48.804;9.024;2023-03-23T05:50:40;32.94;29.54;40.88;;
43168;Laerm;28773;48.804;9.024;2023-03-23T05:53:05;32.87;29.84;40.36;;
43168;Laerm;28773;48.804;9.024;2023-03-23T05:55:31;33.30;29.49;42.96;;
43168;Laerm;28773;48.804;9.024;2023-03-23T05:57:56;32.97;29.73;39.40;;
43168;Laerm;28773;48.804;9.024;2023-03-23T06:00:21;32.78;29.82;39.08;;
43168;Laerm;28773;48.804;9.024;2023-03-23T06:02:48;33.20;29.77;41.71;;
43168;Laerm;28773;48.804;9.024;2023-03-23T06:05:14;33.68;29.98;42.45;;
43168;Laerm;28773;48.804;9.024;2023-03-23T06:07:40;33.70;29.86;40.30;;
43168;Laerm;28773;48.804;9.024;2023-03-23T06:10:06;33.66;29.73;41.50;;
43168;Laerm;28773;48.804;9.024;2023-03-23T06:12:32;33.76;29.77;41.04;;
43168;Laerm;28773;48.804;9.024;2023-03-23T06:14:57;34.18;29.71;41.02;;
43168;Laerm;28773;48.804;9.024;2023-03-23T06:17:23;33.90;29.97;41.86;;
43168;Laerm;28773;48.804;9.024;2023-03-23T06:19:48;34.10;29.75;40.02;;
43168;Laerm;28773;48.804;9.024;2023-03-23T06:22:15;33.76;29.87;41.24;;
43168;Laerm;28773;48.804;9.024;2023-03-23T06:24:41;34.10;29.82;41.28;;
43168;Laerm;28773;48.804;9.024;2023-03-23T06:27:06;34.25;29.90;41.60;;
43168;Laerm;28773;48.804;9.024;2023-03-23T06:29:32;33.38;29.81;42.89;;
43168;Laerm;28773;48.804;9.024;2023-03-23T06:31:59;34.13;30.13;44.57;;
43168;Laerm;28773;48.804;9.024;2023-03-23T06:34:25;35.54;29.85;49.70;;
43168;Laerm;28773;48.804;9.024;2023-03-23T06:36:51;34.11;29.92;41.13;;
43168;Laerm;28773;48.804;9.024;2023-03-23T06:39:16;34.50;30.18;41.71;;
43168;Laerm;28773;48.804;9.024;2023-03-23T06:41:41;33.96;30.00;42.20;;
43168;Laerm;28773;48.804;9.024;2023-03-23T06:44:07;34.16;30.10;42.31;;
43168;Laerm;28773;48.804;9.024;2023-03-23T06:46:33;34.30;30.08;43.31;;
43168;Laerm;28773;48.804;9.024;2023-03-23T06:48:58;35.01;30.15;41.52;;
43168;Laerm;28773;48.804;9.024;2023-03-23T06:51:24;34.88;29.92;44.17;;
43168;Laerm;28773;48.804;9.024;2023-03-23T06:53:49;34.10;30.27;42.38;;
43168;Laerm;28773;48.804;9.024;2023-03-23T06:56:14;34.06;29.83;40.61;;
43168;Laerm;28773;48.804;9.024;2023-03-23T06:58:40;33.78;29.48;43.89;;
43168;Laerm;28773;48.804;9.024;2023-03-23T07:01:07;34.55;29.99;41.76;;
43168;Laerm;28773;48.804;9.024;2023-03-23T07:03:33;34.04;30.04;43.87;;
43168;Laerm;28773;48.804;9.024;2023-03-23T07:05:58;34.56;30.06;44.48;;
43168;Laerm;28773;48.804;9.024;2023-03-23T07:08:24;33.22;29.99;41.12;;
43168;Laerm;28773;48.804;9.024;2023-03-23T07:10:53;34.50;30.03;44.33;;
43168;Laerm;28773;48.804;9.024;2023-03-23T07:13:19;32.88;29.93;39.63;;
43168;Laerm;28773;48.804;9.024;2023-03-23T07:15:44;34.30;30.12;40.61;;
43168;Laerm;28773;48.804;9.024;2023-03-23T07:18:10;33.38;29.99;41.54;;
43168;Laerm;28773;48.804;9.024;2023-03-23T07:20:35;33.22;29.90;40.81;;
43168;Laerm;28773;48.804;9.024;2023-03-23T07:23:01;33.68;30.15;42.63;;
43168;Laerm;28773;48.804;9.024;2023-03-23T07:25:26;33.60;29.94;40.70;;
43168;Laerm;28773;48.804;9.024;2023-03-23T07:27:52;34.88;30.01;42.09;;
43168;Laerm;28773;48.804;9.024;2023-03-23T07:30:17;33.14;30.06;39.75;;
43168;Laerm;28773;48.804;9.024;2023-03-23T07:32:42;34.45;29.92;43.58;;
43168;Laerm;28773;48.804;9.024;2023-03-23T07:35:08;33.41;29.77;40.55;;
43168;Laerm;28773;48.804;9.024;2023-03-23T07:37:34;32.67;29.85;40.72;;
43168;Laerm;28773;48.804;9.024;2023-03-23T07:40:00;33.73;30.01;40.81;;
43168;Laerm;28773;48.804;9.024;2023-03-23T07:42:33;33.35;29.81;41.79;;
43168;Laerm;28773;48.804;9.024;2023-03-23T07:44:58;33.92;29.97;40.45;;
43168;Laerm;28773;48.804;9.024;2023-03-23T07:47:23;33.07;30.03;40.85;;
43168;Laerm;28773;48.804;9.024;2023-03-23T07:49:49;32.79;29.96;40.83;;
43168;Laerm;28773;48.804;9.024;2023-03-23T07:52:14;32.61;30.06;40.16;;
43168;Laerm;28773;48.804;9.024;2023-03-23T07:54:39;32.46;29.73;39.44;;
43168;Laerm;28773;48.804;9.024;2023-03-23T07:57:04;32.88;29.74;42.68;;
43168;Laerm;28773;48.804;9.024;2023-03-23T07:59:31;33.86;29.97;41.79;;
43168;Laerm;28773;48.804;9.024;2023-03-23T08:01:56;32.90;29.72;40.00;;
43168;Laerm;28773;48.804;9.024;2023-03-23T08:04:23;32.41;29.69;38.11;;
43168;Laerm;28773;48.804;9.024;2023-03-23T08:06:48;32.84;29.44;41.59;;
43168;Laerm;28773;48.804;9.024;2023-03-23T08:09:13;33.17;29.87;41.16;;
43168;Laerm;28773;48.804;9.024;2023-03-23T08:11:39;32.93;29.54;40.51;;
43168;Laerm;28773;48.804;9.024;2023-03-23T08:14:04;33.36;29.72;42.76;;
43168;Laerm;28773;48.804;9.024;2023-03-23T08:16:30;32.92;29.97;43.17;;
43168;Laerm;28773;48.804;9.024;2023-03-23T08:18:55;33.15;29.83;40.53;;
43168;Laerm;28773;48.804;9.024;2023-03-23T08:21:21;33.11;29.72;40.82;;
43168;Laerm;28773;48.804;9.024;2023-03-23T08:23:47;32.85;29.79;39.53;;
43168;Laerm;28773;48.804;9.024;2023-03-23T08:26:12;35.01;29.74;50.07;;
43168;Laerm;28773;48.804;9.024;2023-03-23T08:28:39;33.13;29.69;49.68;;
43168;Laerm;28773;48.804;9.024;2023-03-23T08:31:08;33.10;29.92;40.52;;
43168;Laerm;28773;48.804;9.024;2023-03-23T08:33:35;32.36;29.83;39.17;;
43168;Laerm;28773;48.804;9.024;2023-03-23T08:36:01;32.26;29.71;38.23;;
43168;Laerm;28773;48.804;9.024;2023-03-23T08:38:26;32.85;29.95;40.20;;
43168;Laerm;28773;48.804;9.024;2023-03-23T08:40:56;32.68;29.79;39.43;;
43168;Laerm;28773;48.804;9.024;2023-03-23T08:43:21;32.45;29.85;40.69;;
43168;Laerm;28773;48.804;9.024;2023-03-23T08:45:47;32.93;29.90;40.02;;
43168;Laerm;28773;48.804;9.024;2023-03-23T08:48:12;33.51;29.90;41.27;;
43168;Laerm;28773;48.804;9.024;2023-03-23T08:50:38;31.77;29.71;38.47;;
43168;Laerm;28773;48.804;9.024;2023-03-23T08:53:03;32.84;29.94;39.22;;
43168;Laerm;28773;48.804;9.024;2023-03-23T08:55:28;32.62;29.87;41.10;;
43168;Laerm;28773;48.804;9.024;2023-03-23T08:57:54;32.83;30.12;45.02;;
43168;Laerm;28773;48.804;9.024;2023-03-23T09:00:20;32.93;29.81;41.92;;
43168;Laerm;28773;48.804;9.024;2023-03-23T09:02:47;32.90;29.92;42.64;;
43168;Laerm;28773;48.804;9.024;2023-03-23T09:05:13;33.13;29.85;42.86;;
43168;Laerm;28773;48.804;9.024;2023-03-23T09:07:39;32.68;29.98;41.12;;
43168;Laerm;28773;48.804;9.024;2023-03-23T09:10:06;43.92;29.96;69.22;;
43168;Laerm;28773;48.804;9.024;2023-03-23T09:12:31;32.84;29.97;39.73;;
43168;Laerm;28773;48.804;9.024;2023-03-23T09:14:56;32.57;30.05;39.15;;
43168;Laerm;28773;48.804;9.024;2023-03-23T09:17:21;32.98;29.98;40.15;;
43168;Laerm;28773;48.804;9.024;2023-03-23T09:19:47;33.10;29.82;40.11;;
43168;Laerm;28773;48.804;9.024;2023-03-23T09:22:12;33.19;29.89;40.11;;
43168;Laerm;28773;48.804;9.024;2023-03-23T09:24:37;32.83;29.77;43.21;;
43168;Laerm;28773;48.804;9.024;2023-03-23T09:27:03;32.81;29.65;40.33;;
43168;Laerm;28773;48.804;9.024;2023-03-23T09:29:28;32.21;29.85;39.19;;
43168;Laerm;28773;48.804;9.024;2023-03-23T09:31:54;32.73;29.99;42.54;;
43168;Laerm;28773;48.804;9.024;2023-03-23T09:34:19;33.23;29.91;41.74;;
43168;Laerm;28773;48.804;9.024;2023-03-23T09:36:44;32.81;29.82;39.28;;
43168;Laerm;28773;48.804;9.024;2023-03-23T09:39:10;32.54;29.88;40.07;;
43168;Laerm;28773;48.804;9.024;2023-03-23T09:49:13;32.87;29.97;40.99;;
43168;Laerm;28773;48.804;9.024;2023-03-23T09:51:50;33.84;30.02;45.17;;
43168;Laerm;28773;48.804;9.024;2023-03-23T09:54:29;32.92;29.85;41.15;;
43168;Laerm;28773;48.804;9.024;2023-03-23T09:56:57;33.09;29.76;40.64;;
43168;Laerm;28773;48.804;9.024;2023-03-23T10:01:53;32.25;29.52;37.80;;
43168;Laerm;28773;48.804;9.024;2023-03-23T10:04:22;33.04;29.84;42.18;;
43168;Laerm;28773;48.804;9.024;2023-03-23T10:06:49;33.78;29.59;44.28;;
43168;Laerm;28773;48.804;9.024;2023-03-23T10:09:16;32.03;29.80;38.33;;
43168;Laerm;28773;48.804;9.024;2023-03-23T10:17:29;32.51;29.66;38.83;;
43168;Laerm;28773;48.804;9.024;2023-03-23T10:22:33;32.79;29.80;41.37;;
43168;Laerm;28773;48.804;9.024;2023-03-23T10:32:48;32.93;29.69;40.68;;
43168;Laerm;28773;48.804;9.024;2023-03-23T10:35:20;32.78;29.59;39.28;;
43168;Laerm;28773;48.804;9.024;2023-03-23T10:37:48;32.72;29.32;42.01;;
43168;Laerm;28773;48.804;9.024;2023-03-23T10:40:16;32.68;29.90;39.03;;
43168;Laerm;28773;48.804;9.024;2023-03-23T10:42:43;32.65;29.71;39.29;;
43168;Laerm;28773;48.804;9.024;2023-03-23T10:45:13;32.71;29.81;40.53;;
43168;Laerm;28773;48.804;9.024;2023-03-23T10:47:41;32.92;29.82;39.55;;
43168;Laerm;28773;48.804;9.024;2023-03-23T10:50:11;33.09;29.92;43.50;;
43168;Laerm;28773;48.804;9.024;2023-03-23T10:52:39;32.67;29.80;40.02;;
43168;Laerm;28773;48.804;9.024;2023-03-23T10:57:30;33.01;29.70;42.79;;
43168;Laerm;28773;48.804;9.024;2023-03-23T11:00:15;32.60;29.56;37.51;;
43168;Laerm;28773;48.804;9.024;2023-03-23T11:02:42;32.91;29.69;41.87;;
43168;Laerm;28773;48.804;9.024;2023-03-23T11:05:21;33.74;29.69;51.40;;
43168;Laerm;28773;48.804;9.024;2023-03-23T11:07:53;33.07;29.64;41.78;;
43168;Laerm;28773;48.804;9.024;2023-03-23T11:10:35;32.47;29.79;38.74;;
43168;Laerm;28773;48.804;9.024;2023-03-23T11:13:01;32.36;29.88;39.14;;
43168;Laerm;28773;48.804;9.024;2023-03-23T11:15:31;32.39;29.82;37.59;;
43168;Laerm;28773;48.804;9.024;2023-03-23T11:18:01;32.82;29.74;37.90;;
43168;Laerm;28773;48.804;9.024;2023-03-23T11:20:27;33.09;29.91;40.81;;
43168;Laerm;28773;48.804;9.024;2023-03-23T11:22:54;32.53;29.83;41.28;;
43168;Laerm;28773;48.804;9.024;2023-03-23T11:25:20;32.71;29.75;45.16;;
43168;Laerm;28773;48.804;9.024;2023-03-23T11:27:46;33.02;29.95;43.37;;
43168;Laerm;28773;48.804;9.024;2023-03-23T11:30:19;33.02;29.81;38.68;;
43168;Laerm;28773;48.804;9.024;2023-03-23T11:32:46;32.75;29.99;41.31;;
43168;Laerm;28773;48.804;9.024;2023-03-23T11:35:16;33.10;29.73;39.28;;
43168;Laerm;28773;48.804;9.024;2023-03-23T11:38:03;32.02;29.44;39.75;;
43168;Laerm;28773;48.804;9.024;2023-03-23T11:40:30;32.91;29.66;42.87;;
43168;Laerm;28773;48.804;9.024;2023-03-23T11:43:00;32.58;29.68;39.63;;
43168;Laerm;28773;48.804;9.024;2023-03-23T11:50:24;33.36;29.63;40.99;;
43168;Laerm;28773;48.804;9.024;2023-03-23T11:55:50;32.63;29.37;40.17;;
43168;Laerm;28773;48.804;9.024;2023-03-23T11:58:18;32.98;29.54;40.41;;
43168;Laerm;28773;48.804;9.024;2023-03-23T12:00:56;33.38;29.54;41.42;;
43168;Laerm;28773;48.804;9.024;2023-03-23T12:03:22;32.87;29.57;41.45;;
43168;Laerm;28773;48.804;9.024;2023-03-23T12:06:04;33.61;29.70;44.46;;
43168;Laerm;28773;48.804;9.024;2023-03-23T12:11:01;32.85;29.46;40.68;;
43168;Laerm;28773;48.804;9.024;2023-03-23T12:13:37;31.98;29.58;38.55;;
43168;Laerm;28773;48.804;9.024;2023-03-23T12:23:39;33.24;29.83;41.65;;
43168;Laerm;28773;48.804;9.024;2023-03-23T12:26:17;33.05;29.88;41.29;;
43168;Laerm;28773;48.804;9.024;2023-03-23T12:31:35;33.76;29.85;40.08;;
43168;Laerm;28773;48.804;9.024;2023-03-23T12:34:18;32.66;29.79;38.03;;
43168;Laerm;28773;48.804;9.024;2023-03-23T12:36:50;32.33;29.67;38.02;;
43168;Laerm;28773;48.804;9.024;2023-03-23T12:41:51;34.18;29.87;48.19;;
43168;Laerm;28773;48.804;9.024;2023-03-23T12:44:21;33.51;29.77;41.65;;
43168;Laerm;28773;48.804;9.024;2023-03-23T12:47:08;32.16;29.73;38.56;;
43168;Laerm;28773;48.804;9.024;2023-03-23T12:49:53;33.28;29.39;41.04;;
43168;Laerm;28773;48.804;9.024;2023-03-23T12:52:23;33.87;29.66;42.19;;
43168;Laerm;28773;48.804;9.024;2023-03-23T12:55:00;33.29;29.75;42.62;;
43168;Laerm;28773;48.804;9.024;2023-03-23T13:02:32;33.31;29.45;43.82;;
43168;Laerm;28773;48.804;9.024;2023-03-23T13:07:44;33.31;29.61;41.03;;
43168;Laerm;28773;48.804;9.024;2023-03-23T13:10:19;33.67;29.54;42.61;;
43168;Laerm;28773;48.804;9.024;2023-03-23T13:12:47;32.92;29.38;39.84;;
43168;Laerm;28773;48.804;9.024;2023-03-23T13:23:21;33.10;29.55;42.39;;
43168;Laerm;28773;48.804;9.024;2023-03-23T13:25:52;32.79;29.67;38.89;;
43168;Laerm;28773;48.804;9.024;2023-03-23T13:28:22;33.77;29.78;41.69;;
43168;Laerm;28773;48.804;9.024;2023-03-23T13:30:55;33.18;29.57;41.81;;
43168;Laerm;28773;48.804;9.024;2023-03-23T13:33:21;32.95;29.49;39.96;;
43168;Laerm;28773;48.804;9.024;2023-03-23T13:35:46;33.25;29.63;41.67;;
43168;Laerm;28773;48.804;9.024;2023-03-23T13:38:26;32.57;29.56;40.14;;
43168;Laerm;28773;48.804;9.024;2023-03-23T13:40:55;33.00;29.30;40.06;;
43168;Laerm;28773;48.804;9.024;2023-03-23T13:43:28;32.85;29.47;41.20;;
43168;Laerm;28773;48.804;9.024;2023-03-23T13:45:54;32.56;29.71;40.69;;
43168;Laerm;28773;48.804;9.024;2023-03-23T13:48:23;33.02;29.56;42.08;;
43168;Laerm;28773;48.804;9.024;2023-03-23T13:50:50;34.36;29.79;41.48;;
43168;Laerm;28773;48.804;9.024;2023-03-23T13:53:22;32.48;29.71;39.60;;
43168;Laerm;28773;48.804;9.024;2023-03-23T13:55:51;32.81;29.33;42.28;;
43168;Laerm;28773;48.804;9.024;2023-03-23T13:58:27;33.11;29.34;42.08;;
43168;Laerm;28773;48.804;9.024;2023-03-23T14:03:35;33.05;29.66;39.95;;
43168;Laerm;28773;48.804;9.024;2023-03-23T14:06:03;32.75;29.52;44.24;;
43168;Laerm;28773;48.804;9.024;2023-03-23T14:10:56;33.13;29.52;40.50;;
43168;Laerm;28773;48.804;9.024;2023-03-23T14:13:36;32.69;29.59;39.81;;
43168;Laerm;28773;48.804;9.024;2023-03-23T14:16:04;32.78;29.36;39.59;;
43168;Laerm;28773;48.804;9.024;2023-03-23T14:18:32;33.46;29.74;41.92;;
43168;Laerm;28773;48.804;9.024;2023-03-23T14:20:57;32.93;29.64;39.14;;
43168;Laerm;28773;48.804;9.024;2023-03-23T14:23:24;32.28;29.67;41.15;;
43168;Laerm;28773;48.804;9.024;2023-03-23T14:25:56;33.19;29.49;42.46;;
43168;Laerm;28773;48.804;9.024;2023-03-23T14:28:22;33.53;29.57;40.96;;
43168;Laerm;28773;48.804;9.024;2023-03-23T14:30:49;33.92;29.59;41.84;;
43168;Laerm;28773;48.804;9.024;2023-03-23T14:33:17;33.79;29.42;46.97;;
43168;Laerm;28773;48.804;9.024;2023-03-23T14:35:44;34.35;29.88;44.83;;
43168;Laerm;28773;48.804;9.024;2023-03-23T14:38:14;33.22;29.63;39.11;;
43168;Laerm;28773;48.804;9.024;2023-03-23T14:40:40;32.75;29.43;41.48;;
43168;Laerm;28773;48.804;9.024;2023-03-23T14:43:07;33.29;29.63;43.16;;
43168;Laerm;28773;48.804;9.024;2023-03-23T14:45:33;32.99;29.61;39.85;;
43168;Laerm;28773;48.804;9.024;2023-03-23T14:47:59;33.68;29.70;40.27;;
43168;Laerm;28773;48.804;9.024;2023-03-23T14:50:27;32.45;29.41;39.45;;
43168;Laerm;28773;48.804;9.024;2023-03-23T14:52:53;33.78;29.64;41.72;;
43168;Laerm;28773;48.804;9.024;2023-03-23T14:55:21;34.31;29.78;43.09;;
43168;Laerm;28773;48.804;9.024;2023-03-23T14:57:47;34.48;29.72;43.25;;
43168;Laerm;28773;48.804;9.024;2023-03-23T15:00:32;33.09;29.42;43.77;;
43168;Laerm;28773;48.804;9.024;2023-03-23T15:02:58;33.61;29.52;43.04;;
43168;Laerm;28773;48.804;9.024;2023-03-23T15:05:26;33.32;29.50;42.80;;
43168;Laerm;28773;48.804;9.024;2023-03-23T15:07:53;32.87;29.19;39.69;;
43168;Laerm;28773;48.804;9.024;2023-03-23T15:10:21;32.77;29.36;41.07;;
43168;Laerm;28773;48.804;9.024;2023-03-23T15:12:47;33.30;29.58;39.76;;
43168;Laerm;28773;48.804;9.024;2023-03-23T15:15:24;33.10;29.52;39.90;;